sensor_id;sensor_type;location;lat;lon;timestamp;P1;durP1;ratioP1;P2;durP2;ratioP2
35364;SDS011;21464;48.112;11.530;2023-09-30T00:00:28;26.20;;;12.02;;
35364;SDS011;21464;48.112;11.530;2023-09-30T00:02:54;24.48;;;12.00;;
35364;SDS011;21464;48.112;11.530;2023-09-30T00:05:21;20.35;;;11.57;;
35364;SDS011;21464;48.112;11.530;2023-09-30T00:07:47;22.33;;;11.13;;
35364;SDS011;21464;48.112;11.530;2023-09-30T00:10:13;20.75;;;11.40;;
35364;SDS011;21464;48.112;11.530;2023-09-30T00:12:40;23.83;;;11.48;;
35364;SDS011;21464;48.112;11.530;2023-09-30T00:15:07;21.65;;;11.35;;
35364;SDS011;21464;48.112;11.530;2023-09-30T00:17:33;21.85;;;11.70;;
35364;SDS011;21464;48.112;11.530;2023-09-30T00:19:59;21.35;;;11.45;;
35364;SDS011;21464;48.112;11.530;2023-09-30T00:22:26;23.88;;;11.68;;
35364;SDS011;21464;48.112;11.530;2023-09-30T00:24:52;22.50;;;11.45;;
35364;SDS011;21464;48.112;11.530;2023-09-30T00:27:18;21.85;;;11.50;;
35364;SDS011;21464;48.112;11.530;2023-09-30T00:29:44;23.00;;;11.98;;
35364;SDS011;21464;48.112;11.530;2023-09-30T00:32:11;25.30;;;11.48;;
35364;SDS011;21464;48.112;11.530;2023-09-30T00:34:37;23.48;;;12.23;;
35364;SDS011;21464;48.112;11.530;2023-09-30T00:37:04;19.75;;;11.70;;
35364;SDS011;21464;48.112;11.530;2023-09-30T00:39:32;22.25;;;11.82;;
35364;SDS011;21464;48.112;11.530;2023-09-30T00:41:58;24.63;;;11.45;;
35364;SDS011;21464;48.112;11.530;2023-09-30T00:44:25;24.48;;;11.68;;
35364;SDS011;21464;48.112;11.530;2023-09-30T00:46:52;23.00;;;12.40;;
35364;SDS011;21464;48.112;11.530;2023-09-30T00:49:21;23.13;;;12.18;;
35364;SDS011;21464;48.112;11.530;2023-09-30T00:51:47;22.58;;;12.15;;
35364;SDS011;21464;48.112;11.530;2023-09-30T00:54:15;26.15;;;13.35;;
35364;SDS011;21464;48.112;11.530;2023-09-30T00:56:43;24.98;;;13.23;;
35364;SDS011;21464;48.112;11.530;2023-09-30T00:59:14;25.65;;;12.20;;
35364;SDS011;21464;48.112;11.530;2023-09-30T01:01:43;22.98;;;12.05;;
35364;SDS011;21464;48.112;11.530;2023-09-30T01:04:13;24.55;;;12.88;;
35364;SDS011;21464;48.112;11.530;2023-09-30T01:06:40;25.92;;;12.45;;
35364;SDS011;21464;48.112;11.530;2023-09-30T01:09:07;24.55;;;13.20;;
35364;SDS011;21464;48.112;11.530;2023-09-30T01:11:34;22.65;;;12.93;;
35364;SDS011;21464;48.112;11.530;2023-09-30T01:14:01;23.67;;;12.52;;
35364;SDS011;21464;48.112;11.530;2023-09-30T01:16:27;24.50;;;12.00;;
35364;SDS011;21464;48.112;11.530;2023-09-30T01:18:54;23.55;;;12.38;;
35364;SDS011;21464;48.112;11.530;2023-09-30T01:21:20;23.48;;;12.50;;
35364;SDS011;21464;48.112;11.530;2023-09-30T01:23:48;21.48;;;11.98;;
35364;SDS011;21464;48.112;11.530;2023-09-30T01:26:14;21.45;;;12.27;;
35364;SDS011;21464;48.112;11.530;2023-09-30T01:28:41;26.30;;;12.85;;
35364;SDS011;21464;48.112;11.530;2023-09-30T01:31:07;24.02;;;12.65;;
35364;SDS011;21464;48.112;11.530;2023-09-30T01:33:35;24.63;;;12.65;;
35364;SDS011;21464;48.112;11.530;2023-09-30T01:36:02;23.30;;;12.20;;
35364;SDS011;21464;48.112;11.530;2023-09-30T01:38:29;22.65;;;12.68;;
35364;SDS011;21464;48.112;11.530;2023-09-30T01:40:55;25.00;;;12.82;;
35364;SDS011;21464;48.112;11.530;2023-09-30T01:43:21;25.40;;;12.77;;
35364;SDS011;21464;48.112;11.530;2023-09-30T01:45:48;25.98;;;13.18;;
35364;SDS011;21464;48.112;11.530;2023-09-30T01:48:14;22.25;;;12.45;;
35364;SDS011;21464;48.112;11.530;2023-09-30T01:50:40;26.20;;;13.25;;
35364;SDS011;21464;48.112;11.530;2023-09-30T01:53:06;25.42;;;13.02;;
35364;SDS011;21464;48.112;11.530;2023-09-30T01:55:33;24.75;;;13.38;;
35364;SDS011;21464;48.112;11.530;2023-09-30T01:58:00;23.60;;;12.32;;
35364;SDS011;21464;48.112;11.530;2023-09-30T02:00:27;24.98;;;12.35;;
35364;SDS011;21464;48.112;11.530;2023-09-30T02:02:57;25.92;;;13.63;;
35364;SDS011;21464;48.112;11.530;2023-09-30T02:05:24;27.00;;;13.07;;
35364;SDS011;21464;48.112;11.530;2023-09-30T02:07:50;20.83;;;11.63;;
35364;SDS011;21464;48.112;11.530;2023-09-30T02:10:17;25.02;;;13.20;;
35364;SDS011;21464;48.112;11.530;2023-09-30T02:12:45;25.38;;;12.77;;
35364;SDS011;21464;48.112;11.530;2023-09-30T02:15:12;25.85;;;12.50;;
35364;SDS011;21464;48.112;11.530;2023-09-30T02:17:38;24.85;;;13.10;;
35364;SDS011;21464;48.112;11.530;2023-09-30T02:20:05;24.73;;;12.82;;
35364;SDS011;21464;48.112;11.530;2023-09-30T02:22:39;23.60;;;12.98;;
35364;SDS011;21464;48.112;11.530;2023-09-30T02:25:06;24.13;;;13.63;;
35364;SDS011;21464;48.112;11.530;2023-09-30T02:27:35;23.98;;;12.77;;
35364;SDS011;21464;48.112;11.530;2023-09-30T02:30:01;24.90;;;12.43;;
35364;SDS011;21464;48.112;11.530;2023-09-30T02:32:29;22.75;;;12.75;;
35364;SDS011;21464;48.112;11.530;2023-09-30T02:34:55;23.67;;;13.15;;
35364;SDS011;21464;48.112;11.530;2023-09-30T02:37:21;25.65;;;13.35;;
35364;SDS011;21464;48.112;11.530;2023-09-30T02:39:48;26.33;;;13.40;;
35364;SDS011;21464;48.112;11.530;2023-09-30T02:42:14;21.20;;;11.60;;
35364;SDS011;21464;48.112;11.530;2023-09-30T02:44:41;26.00;;;12.80;;
35364;SDS011;21464;48.112;11.530;2023-09-30T02:47:08;23.95;;;12.63;;
35364;SDS011;21464;48.112;11.530;2023-09-30T02:49:35;23.60;;;12.40;;
35364;SDS011;21464;48.112;11.530;2023-09-30T02:52:01;24.45;;;12.18;;
35364;SDS011;21464;48.112;11.530;2023-09-30T02:54:29;23.25;;;12.23;;
35364;SDS011;21464;48.112;11.530;2023-09-30T02:56:56;24.67;;;12.90;;
35364;SDS011;21464;48.112;11.530;2023-09-30T03:02:11;22.17;;;12.25;;
35364;SDS011;21464;48.112;11.530;2023-09-30T03:04:38;23.77;;;12.55;;
35364;SDS011;21464;48.112;11.530;2023-09-30T03:07:05;26.23;;;12.68;;
35364;SDS011;21464;48.112;11.530;2023-09-30T03:09:31;23.13;;;13.07;;
35364;SDS011;21464;48.112;11.530;2023-09-30T03:11:57;25.38;;;13.10;;
35364;SDS011;21464;48.112;11.530;2023-09-30T03:14:25;26.20;;;13.00;;
35364;SDS011;21464;48.112;11.530;2023-09-30T03:16:51;23.88;;;13.00;;
35364;SDS011;21464;48.112;11.530;2023-09-30T03:19:17;24.70;;;11.98;;
35364;SDS011;21464;48.112;11.530;2023-09-30T03:21:44;21.05;;;11.80;;
35364;SDS011;21464;48.112;11.530;2023-09-30T03:24:10;24.48;;;12.02;;
35364;SDS011;21464;48.112;11.530;2023-09-30T03:26:38;24.65;;;12.25;;
35364;SDS011;21464;48.112;11.530;2023-09-30T03:29:07;23.52;;;12.63;;
35364;SDS011;21464;48.112;11.530;2023-09-30T03:31:35;22.63;;;12.70;;
35364;SDS011;21464;48.112;11.530;2023-09-30T03:34:04;22.55;;;11.88;;
35364;SDS011;21464;48.112;11.530;2023-09-30T03:36:31;22.92;;;12.23;;
35364;SDS011;21464;48.112;11.530;2023-09-30T03:38:58;23.95;;;11.77;;
35364;SDS011;21464;48.112;11.530;2023-09-30T03:41:35;22.63;;;11.32;;
35364;SDS011;21464;48.112;11.530;2023-09-30T03:44:02;22.88;;;11.82;;
35364;SDS011;21464;48.112;11.530;2023-09-30T03:46:29;23.48;;;11.27;;
35364;SDS011;21464;48.112;11.530;2023-09-30T03:48:56;21.90;;;12.15;;
35364;SDS011;21464;48.112;11.530;2023-09-30T03:51:22;21.70;;;11.52;;
35364;SDS011;21464;48.112;11.530;2023-09-30T03:53:51;24.15;;;11.63;;
35364;SDS011;21464;48.112;11.530;2023-09-30T03:56:18;22.48;;;11.32;;
35364;SDS011;21464;48.112;11.530;2023-09-30T03:58:44;22.35;;;11.57;;
35364;SDS011;21464;48.112;11.530;2023-09-30T04:01:10;22.25;;;12.43;;
35364;SDS011;21464;48.112;11.530;2023-09-30T04:03:37;22.63;;;11.50;;
35364;SDS011;21464;48.112;11.530;2023-09-30T04:06:09;24.77;;;12.43;;
35364;SDS011;21464;48.112;11.530;2023-09-30T04:08:35;25.58;;;12.60;;
35364;SDS011;21464;48.112;11.530;2023-09-30T04:11:02;23.45;;;11.77;;
35364;SDS011;21464;48.112;11.530;2023-09-30T04:13:31;23.17;;;12.13;;
35364;SDS011;21464;48.112;11.530;2023-09-30T04:15:58;21.70;;;11.30;;
35364;SDS011;21464;48.112;11.530;2023-09-30T04:18:25;23.30;;;11.88;;
35364;SDS011;21464;48.112;11.530;2023-09-30T04:20:54;23.15;;;12.30;;
35364;SDS011;21464;48.112;11.530;2023-09-30T04:23:21;23.02;;;12.13;;
35364;SDS011;21464;48.112;11.530;2023-09-30T04:25:47;22.92;;;11.73;;
35364;SDS011;21464;48.112;11.530;2023-09-30T04:28:15;22.95;;;12.15;;
35364;SDS011;21464;48.112;11.530;2023-09-30T04:30:49;20.08;;;11.35;;
35364;SDS011;21464;48.112;11.530;2023-09-30T04:33:16;23.55;;;11.82;;
35364;SDS011;21464;48.112;11.530;2023-09-30T04:35:43;23.77;;;12.75;;
35364;SDS011;21464;48.112;11.530;2023-09-30T04:38:10;22.15;;;13.18;;
35364;SDS011;21464;48.112;11.530;2023-09-30T04:40:37;20.92;;;10.88;;
35364;SDS011;21464;48.112;11.530;2023-09-30T04:43:03;24.10;;;11.10;;
35364;SDS011;21464;48.112;11.530;2023-09-30T04:45:31;25.80;;;13.40;;
35364;SDS011;21464;48.112;11.530;2023-09-30T04:47:58;22.48;;;11.45;;
35364;SDS011;21464;48.112;11.530;2023-09-30T04:50:25;21.00;;;9.95;;
35364;SDS011;21464;48.112;11.530;2023-09-30T04:52:51;18.83;;;10.60;;
35364;SDS011;21464;48.112;11.530;2023-09-30T04:55:18;21.33;;;10.25;;
35364;SDS011;21464;48.112;11.530;2023-09-30T04:57:46;20.35;;;9.40;;
35364;SDS011;21464;48.112;11.530;2023-09-30T05:00:13;21.83;;;9.88;;
35364;SDS011;21464;48.112;11.530;2023-09-30T05:02:40;21.92;;;11.48;;
35364;SDS011;21464;48.112;11.530;2023-09-30T05:05:07;20.45;;;10.98;;
35364;SDS011;21464;48.112;11.530;2023-09-30T05:07:34;19.30;;;11.02;;
35364;SDS011;21464;48.112;11.530;2023-09-30T05:10:00;26.25;;;15.30;;
35364;SDS011;21464;48.112;11.530;2023-09-30T05:12:26;21.40;;;10.75;;
35364;SDS011;21464;48.112;11.530;2023-09-30T05:14:52;19.50;;;10.18;;
35364;SDS011;21464;48.112;11.530;2023-09-30T05:17:20;20.35;;;11.15;;
35364;SDS011;21464;48.112;11.530;2023-09-30T05:19:46;22.50;;;10.45;;
35364;SDS011;21464;48.112;11.530;2023-09-30T05:22:13;17.92;;;10.43;;
35364;SDS011;21464;48.112;11.530;2023-09-30T05:24:39;19.92;;;9.80;;
35364;SDS011;21464;48.112;11.530;2023-09-30T05:27:05;18.92;;;9.73;;
35364;SDS011;21464;48.112;11.530;2023-09-30T05:29:32;17.20;;;10.82;;
35364;SDS011;21464;48.112;11.530;2023-09-30T05:31:59;21.38;;;11.00;;
35364;SDS011;21464;48.112;11.530;2023-09-30T05:34:25;19.08;;;10.15;;
35364;SDS011;21464;48.112;11.530;2023-09-30T05:36:51;20.45;;;10.43;;
35364;SDS011;21464;48.112;11.530;2023-09-30T05:39:18;20.33;;;10.57;;
35364;SDS011;21464;48.112;11.530;2023-09-30T05:41:46;18.30;;;10.50;;
35364;SDS011;21464;48.112;11.530;2023-09-30T05:44:12;19.98;;;11.10;;
35364;SDS011;21464;48.112;11.530;2023-09-30T05:46:40;22.42;;;11.80;;
35364;SDS011;21464;48.112;11.530;2023-09-30T05:49:06;20.23;;;11.20;;
35364;SDS011;21464;48.112;11.530;2023-09-30T05:51:37;22.95;;;10.15;;
35364;SDS011;21464;48.112;11.530;2023-09-30T05:54:04;18.13;;;9.50;;
35364;SDS011;21464;48.112;11.530;2023-09-30T05:56:30;18.27;;;9.55;;
35364;SDS011;21464;48.112;11.530;2023-09-30T05:58:57;19.13;;;9.68;;
35364;SDS011;21464;48.112;11.530;2023-09-30T06:01:23;18.63;;;9.55;;
35364;SDS011;21464;48.112;11.530;2023-09-30T06:03:49;20.33;;;10.35;;
35364;SDS011;21464;48.112;11.530;2023-09-30T06:06:15;19.40;;;10.23;;
35364;SDS011;21464;48.112;11.530;2023-09-30T06:08:42;17.13;;;9.90;;
35364;SDS011;21464;48.112;11.530;2023-09-30T06:11:18;17.23;;;9.70;;
35364;SDS011;21464;48.112;11.530;2023-09-30T06:13:53;18.08;;;10.00;;
35364;SDS011;21464;48.112;11.530;2023-09-30T06:16:20;20.42;;;9.60;;
35364;SDS011;21464;48.112;11.530;2023-09-30T06:18:46;17.88;;;9.77;;
35364;SDS011;21464;48.112;11.530;2023-09-30T06:21:14;17.65;;;9.30;;
35364;SDS011;21464;48.112;11.530;2023-09-30T06:23:42;18.15;;;9.30;;
35364;SDS011;21464;48.112;11.530;2023-09-30T06:26:09;18.23;;;9.55;;
35364;SDS011;21464;48.112;11.530;2023-09-30T06:28:35;17.77;;;9.25;;
35364;SDS011;21464;48.112;11.530;2023-09-30T06:31:07;17.35;;;9.05;;
35364;SDS011;21464;48.112;11.530;2023-09-30T06:33:37;15.40;;;8.52;;
35364;SDS011;21464;48.112;11.530;2023-09-30T06:36:08;15.75;;;8.73;;
35364;SDS011;21464;48.112;11.530;2023-09-30T06:38:34;16.60;;;9.13;;
35364;SDS011;21464;48.112;11.530;2023-09-30T06:41:03;17.27;;;9.05;;
35364;SDS011;21464;48.112;11.530;2023-09-30T06:43:30;15.07;;;8.80;;
35364;SDS011;21464;48.112;11.530;2023-09-30T06:45:56;16.67;;;8.90;;
35364;SDS011;21464;48.112;11.530;2023-09-30T06:48:22;14.07;;;8.15;;
35364;SDS011;21464;48.112;11.530;2023-09-30T06:50:49;15.23;;;8.05;;
35364;SDS011;21464;48.112;11.530;2023-09-30T06:53:16;16.45;;;7.90;;
35364;SDS011;21464;48.112;11.530;2023-09-30T06:55:42;16.05;;;7.75;;
35364;SDS011;21464;48.112;11.530;2023-09-30T06:58:12;13.98;;;7.22;;
35364;SDS011;21464;48.112;11.530;2023-09-30T07:00:43;14.32;;;7.35;;
35364;SDS011;21464;48.112;11.530;2023-09-30T07:03:09;13.90;;;7.32;;
35364;SDS011;21464;48.112;11.530;2023-09-30T07:05:36;11.95;;;7.03;;
35364;SDS011;21464;48.112;11.530;2023-09-30T07:08:02;11.18;;;6.32;;
35364;SDS011;21464;48.112;11.530;2023-09-30T07:10:29;14.32;;;7.15;;
35364;SDS011;21464;48.112;11.530;2023-09-30T07:12:55;9.98;;;6.45;;
35364;SDS011;21464;48.112;11.530;2023-09-30T07:15:21;12.05;;;6.68;;
35364;SDS011;21464;48.112;11.530;2023-09-30T07:17:48;12.10;;;6.32;;
35364;SDS011;21464;48.112;11.530;2023-09-30T07:20:14;11.95;;;6.75;;
35364;SDS011;21464;48.112;11.530;2023-09-30T07:22:40;12.13;;;6.60;;
35364;SDS011;21464;48.112;11.530;2023-09-30T07:25:07;12.82;;;6.65;;
35364;SDS011;21464;48.112;11.530;2023-09-30T07:27:34;11.88;;;6.70;;
35364;SDS011;21464;48.112;11.530;2023-09-30T07:30:00;10.90;;;6.50;;
35364;SDS011;21464;48.112;11.530;2023-09-30T07:32:27;11.57;;;6.18;;
35364;SDS011;21464;48.112;11.530;2023-09-30T07:34:54;10.32;;;6.15;;
35364;SDS011;21464;48.112;11.530;2023-09-30T07:37:20;9.93;;;6.22;;
35364;SDS011;21464;48.112;11.530;2023-09-30T07:39:47;11.38;;;6.53;;
35364;SDS011;21464;48.112;11.530;2023-09-30T07:42:13;11.18;;;6.10;;
35364;SDS011;21464;48.112;11.530;2023-09-30T07:44:39;12.73;;;6.63;;
35364;SDS011;21464;48.112;11.530;2023-09-30T07:47:05;11.70;;;6.50;;
35364;SDS011;21464;48.112;11.530;2023-09-30T07:49:32;13.07;;;6.55;;
35364;SDS011;21464;48.112;11.530;2023-09-30T07:51:58;15.68;;;6.30;;
35364;SDS011;21464;48.112;11.530;2023-09-30T07:54:25;11.07;;;6.38;;
35364;SDS011;21464;48.112;11.530;2023-09-30T07:56:51;11.82;;;6.15;;
35364;SDS011;21464;48.112;11.530;2023-09-30T07:59:17;11.65;;;6.95;;
35364;SDS011;21464;48.112;11.530;2023-09-30T08:01:43;12.98;;;6.82;;
35364;SDS011;21464;48.112;11.530;2023-09-30T08:04:10;12.73;;;6.97;;
35364;SDS011;21464;48.112;11.530;2023-09-30T08:06:36;9.55;;;5.68;;
35364;SDS011;21464;48.112;11.530;2023-09-30T08:09:03;12.32;;;6.95;;
35364;SDS011;21464;48.112;11.530;2023-09-30T08:11:29;10.35;;;6.47;;
35364;SDS011;21464;48.112;11.530;2023-09-30T08:13:58;10.88;;;6.18;;
35364;SDS011;21464;48.112;11.530;2023-09-30T08:16:24;10.98;;;6.45;;
35364;SDS011;21464;48.112;11.530;2023-09-30T08:18:51;14.60;;;6.80;;
35364;SDS011;21464;48.112;11.530;2023-09-30T08:21:17;8.50;;;5.68;;
35364;SDS011;21464;48.112;11.530;2023-09-30T08:23:43;11.45;;;6.40;;
35364;SDS011;21464;48.112;11.530;2023-09-30T08:26:10;10.57;;;6.20;;
35364;SDS011;21464;48.112;11.530;2023-09-30T08:28:36;11.65;;;6.65;;
35364;SDS011;21464;48.112;11.530;2023-09-30T08:31:02;8.35;;;5.45;;
35364;SDS011;21464;48.112;11.530;2023-09-30T08:33:30;10.15;;;5.90;;
35364;SDS011;21464;48.112;11.530;2023-09-30T08:36:03;12.77;;;6.43;;
35364;SDS011;21464;48.112;11.530;2023-09-30T08:38:39;9.75;;;5.75;;
35364;SDS011;21464;48.112;11.530;2023-09-30T08:41:06;10.15;;;6.05;;
35364;SDS011;21464;48.112;11.530;2023-09-30T08:43:37;9.93;;;6.00;;
35364;SDS011;21464;48.112;11.530;2023-09-30T08:46:05;10.48;;;6.35;;
35364;SDS011;21464;48.112;11.530;2023-09-30T08:48:32;10.25;;;6.43;;
35364;SDS011;21464;48.112;11.530;2023-09-30T08:50:59;12.45;;;6.45;;
35364;SDS011;21464;48.112;11.530;2023-09-30T08:53:26;12.05;;;6.18;;
35364;SDS011;21464;48.112;11.530;2023-09-30T08:55:55;11.45;;;6.70;;
35364;SDS011;21464;48.112;11.530;2023-09-30T08:58:23;12.85;;;6.55;;
35364;SDS011;21464;48.112;11.530;2023-09-30T09:00:50;12.38;;;6.57;;
35364;SDS011;21464;48.112;11.530;2023-09-30T09:03:18;12.45;;;7.13;;
35364;SDS011;21464;48.112;11.530;2023-09-30T09:05:45;11.23;;;6.43;;
35364;SDS011;21464;48.112;11.530;2023-09-30T09:08:12;12.48;;;6.60;;
35364;SDS011;21464;48.112;11.530;2023-09-30T09:10:53;12.40;;;6.88;;
35364;SDS011;21464;48.112;11.530;2023-09-30T09:13:24;14.35;;;6.65;;
35364;SDS011;21464;48.112;11.530;2023-09-30T09:16:06;11.95;;;6.75;;
35364;SDS011;21464;48.112;11.530;2023-09-30T09:18:34;11.40;;;6.55;;
35364;SDS011;21464;48.112;11.530;2023-09-30T09:21:08;11.93;;;6.72;;
35364;SDS011;21464;48.112;11.530;2023-09-30T09:23:48;13.95;;;7.32;;
35364;SDS011;21464;48.112;11.530;2023-09-30T09:26:28;14.73;;;7.00;;
35364;SDS011;21464;48.112;11.530;2023-09-30T09:29:01;14.55;;;7.80;;
35364;SDS011;21464;48.112;11.530;2023-09-30T09:31:30;14.02;;;7.15;;
35364;SDS011;21464;48.112;11.530;2023-09-30T09:34:03;11.07;;;6.43;;
35364;SDS011;21464;48.112;11.530;2023-09-30T09:36:40;11.98;;;6.90;;
35364;SDS011;21464;48.112;11.530;2023-09-30T09:39:07;13.27;;;6.63;;
35364;SDS011;21464;48.112;11.530;2023-09-30T09:41:37;16.15;;;7.15;;
35364;SDS011;21464;48.112;11.530;2023-09-30T09:44:16;14.30;;;7.28;;
35364;SDS011;21464;48.112;11.530;2023-09-30T09:46:43;12.55;;;6.75;;
35364;SDS011;21464;48.112;11.530;2023-09-30T09:49:11;13.32;;;6.97;;
35364;SDS011;21464;48.112;11.530;2023-09-30T09:51:37;12.40;;;7.10;;
35364;SDS011;21464;48.112;11.530;2023-09-30T09:54:04;13.75;;;7.20;;
35364;SDS011;21464;48.112;11.530;2023-09-30T09:56:33;11.82;;;6.75;;
35364;SDS011;21464;48.112;11.530;2023-09-30T09:59:01;12.32;;;7.00;;
35364;SDS011;21464;48.112;11.530;2023-09-30T10:01:30;11.63;;;6.85;;
35364;SDS011;21464;48.112;11.530;2023-09-30T10:03:56;13.68;;;7.03;;
35364;SDS011;21464;48.112;11.530;2023-09-30T10:06:22;11.75;;;7.22;;
35364;SDS011;21464;48.112;11.530;2023-09-30T10:08:50;14.00;;;7.25;;
35364;SDS011;21464;48.112;11.530;2023-09-30T10:11:18;13.20;;;6.45;;
35364;SDS011;21464;48.112;11.530;2023-09-30T10:13:54;13.25;;;6.88;;
35364;SDS011;21464;48.112;11.530;2023-09-30T10:21:34;12.73;;;6.63;;
35364;SDS011;21464;48.112;11.530;2023-09-30T10:37:46;11.27;;;6.15;;
35364;SDS011;21464;48.112;11.530;2023-09-30T10:40:26;10.40;;;5.93;;
35364;SDS011;21464;48.112;11.530;2023-09-30T10:42:57;11.60;;;6.10;;
35364;SDS011;21464;48.112;11.530;2023-09-30T10:50:52;11.07;;;6.85;;
35364;SDS011;21464;48.112;11.530;2023-09-30T10:53:20;9.18;;;5.72;;
35364;SDS011;21464;48.112;11.530;2023-09-30T10:55:46;12.15;;;7.15;;
35364;SDS011;21464;48.112;11.530;2023-09-30T11:01:16;13.73;;;6.80;;
35364;SDS011;21464;48.112;11.530;2023-09-30T11:03:44;11.05;;;6.43;;
35364;SDS011;21464;48.112;11.530;2023-09-30T11:06:15;12.30;;;7.25;;
35364;SDS011;21464;48.112;11.530;2023-09-30T11:08:50;13.73;;;7.93;;
35364;SDS011;21464;48.112;11.530;2023-09-30T11:11:19;11.73;;;6.63;;
35364;SDS011;21464;48.112;11.530;2023-09-30T11:13:45;11.57;;;7.03;;
35364;SDS011;21464;48.112;11.530;2023-09-30T11:16:11;14.25;;;8.20;;
35364;SDS011;21464;48.112;11.530;2023-09-30T11:18:38;12.75;;;7.20;;
35364;SDS011;21464;48.112;11.530;2023-09-30T11:23:32;10.10;;;6.18;;
35364;SDS011;21464;48.112;11.530;2023-09-30T11:25:58;13.00;;;7.53;;
35364;SDS011;21464;48.112;11.530;2023-09-30T11:28:25;10.73;;;6.32;;
35364;SDS011;21464;48.112;11.530;2023-09-30T11:31:01;12.25;;;6.38;;
35364;SDS011;21464;48.112;11.530;2023-09-30T11:33:28;12.00;;;7.40;;
35364;SDS011;21464;48.112;11.530;2023-09-30T11:36:05;11.85;;;6.88;;
35364;SDS011;21464;48.112;11.530;2023-09-30T11:38:32;11.70;;;6.80;;
35364;SDS011;21464;48.112;11.530;2023-09-30T11:41:02;11.52;;;7.60;;
35364;SDS011;21464;48.112;11.530;2023-09-30T11:43:33;13.45;;;7.68;;
35364;SDS011;21464;48.112;11.530;2023-09-30T11:46:10;13.07;;;7.07;;
35364;SDS011;21464;48.112;11.530;2023-09-30T11:48:40;16.83;;;9.23;;
35364;SDS011;21464;48.112;11.530;2023-09-30T11:51:28;11.93;;;7.40;;
35364;SDS011;21464;48.112;11.530;2023-09-30T11:53:55;12.52;;;7.80;;
35364;SDS011;21464;48.112;11.530;2023-09-30T11:56:24;12.57;;;8.00;;
35364;SDS011;21464;48.112;11.530;2023-09-30T11:58:55;14.13;;;8.30;;
35364;SDS011;21464;48.112;11.530;2023-09-30T12:01:22;14.55;;;8.05;;
35364;SDS011;21464;48.112;11.530;2023-09-30T12:03:51;13.75;;;8.23;;
35364;SDS011;21464;48.112;11.530;2023-09-30T12:06:17;14.93;;;8.65;;
35364;SDS011;21464;48.112;11.530;2023-09-30T12:08:43;12.18;;;6.50;;
35364;SDS011;21464;48.112;11.530;2023-09-30T12:11:11;14.43;;;8.07;;
35364;SDS011;21464;48.112;11.530;2023-09-30T12:13:41;15.25;;;8.85;;
35364;SDS011;21464;48.112;11.530;2023-09-30T12:16:10;17.13;;;8.45;;
35364;SDS011;21464;48.112;11.530;2023-09-30T12:18:39;13.68;;;8.52;;
35364;SDS011;21464;48.112;11.530;2023-09-30T12:21:10;12.07;;;7.80;;
35364;SDS011;21464;48.112;11.530;2023-09-30T12:23:36;11.60;;;7.35;;
35364;SDS011;21464;48.112;11.530;2023-09-30T12:26:03;11.45;;;7.65;;
35364;SDS011;21464;48.112;11.530;2023-09-30T12:28:31;12.90;;;8.10;;
35364;SDS011;21464;48.112;11.530;2023-09-30T12:31:01;11.38;;;8.07;;
35364;SDS011;21464;48.112;11.530;2023-09-30T12:33:29;12.88;;;8.45;;
35364;SDS011;21464;48.112;11.530;2023-09-30T12:35:56;13.10;;;8.90;;
35364;SDS011;21464;48.112;11.530;2023-09-30T12:38:25;13.50;;;9.27;;
35364;SDS011;21464;48.112;11.530;2023-09-30T12:40:53;14.00;;;9.15;;
35364;SDS011;21464;48.112;11.530;2023-09-30T12:43:20;15.68;;;10.15;;
35364;SDS011;21464;48.112;11.530;2023-09-30T12:45:47;14.77;;;9.93;;
35364;SDS011;21464;48.112;11.530;2023-09-30T12:48:16;14.90;;;10.13;;
35364;SDS011;21464;48.112;11.530;2023-09-30T12:50:43;14.02;;;9.65;;
35364;SDS011;21464;48.112;11.530;2023-09-30T12:53:10;15.30;;;9.73;;
35364;SDS011;21464;48.112;11.530;2023-09-30T12:55:36;14.68;;;9.70;;
35364;SDS011;21464;48.112;11.530;2023-09-30T12:58:03;13.98;;;9.55;;
35364;SDS011;21464;48.112;11.530;2023-09-30T13:00:30;13.85;;;8.65;;
35364;SDS011;21464;48.112;11.530;2023-09-30T13:02:59;12.82;;;8.90;;
35364;SDS011;21464;48.112;11.530;2023-09-30T13:05:26;13.38;;;9.35;;
35364;SDS011;21464;48.112;11.530;2023-09-30T13:07:52;14.70;;;9.27;;
35364;SDS011;21464;48.112;11.530;2023-09-30T13:10:18;14.40;;;9.27;;
35364;SDS011;21464;48.112;11.530;2023-09-30T13:12:45;14.00;;;9.05;;
35364;SDS011;21464;48.112;11.530;2023-09-30T13:15:12;13.77;;;9.10;;
35364;SDS011;21464;48.112;11.530;2023-09-30T13:17:40;12.57;;;8.68;;
35364;SDS011;21464;48.112;11.530;2023-09-30T13:20:06;13.50;;;8.98;;
35364;SDS011;21464;48.112;11.530;2023-09-30T13:22:35;13.18;;;8.60;;
35364;SDS011;21464;48.112;11.530;2023-09-30T13:25:04;12.88;;;7.93;;
35364;SDS011;21464;48.112;11.530;2023-09-30T13:27:31;13.23;;;7.78;;
35364;SDS011;21464;48.112;11.530;2023-09-30T13:29:58;13.57;;;8.40;;
35364;SDS011;21464;48.112;11.530;2023-09-30T13:32:25;15.25;;;8.85;;
35364;SDS011;21464;48.112;11.530;2023-09-30T13:34:51;14.10;;;8.13;;
35364;SDS011;21464;48.112;11.530;2023-09-30T13:37:18;11.45;;;7.53;;
35364;SDS011;21464;48.112;11.530;2023-09-30T13:39:44;15.82;;;8.40;;
35364;SDS011;21464;48.112;11.530;2023-09-30T13:42:10;12.70;;;7.75;;
35364;SDS011;21464;48.112;11.530;2023-09-30T13:44:37;13.88;;;8.10;;
35364;SDS011;21464;48.112;11.530;2023-09-30T13:47:03;12.85;;;7.80;;
35364;SDS011;21464;48.112;11.530;2023-09-30T13:49:29;12.73;;;7.60;;
35364;SDS011;21464;48.112;11.530;2023-09-30T13:51:59;13.50;;;7.57;;
35364;SDS011;21464;48.112;11.530;2023-09-30T13:54:25;12.18;;;7.22;;
35364;SDS011;21464;48.112;11.530;2023-09-30T13:56:51;12.98;;;8.05;;
35364;SDS011;21464;48.112;11.530;2023-09-30T13:59:18;12.30;;;7.63;;
35364;SDS011;21464;48.112;11.530;2023-09-30T14:01:44;14.48;;;7.63;;
35364;SDS011;21464;48.112;11.530;2023-09-30T14:04:10;12.60;;;8.27;;
35364;SDS011;21464;48.112;11.530;2023-09-30T14:06:36;14.65;;;8.13;;
35364;SDS011;21464;48.112;11.530;2023-09-30T14:09:03;15.50;;;8.88;;
35364;SDS011;21464;48.112;11.530;2023-09-30T14:11:30;12.90;;;8.02;;
35364;SDS011;21464;48.112;11.530;2023-09-30T14:13:56;15.90;;;9.90;;
35364;SDS011;21464;48.112;11.530;2023-09-30T14:16:23;13.52;;;8.20;;
35364;SDS011;21464;48.112;11.530;2023-09-30T14:18:49;12.50;;;8.00;;
35364;SDS011;21464;48.112;11.530;2023-09-30T14:21:15;12.75;;;7.60;;
35364;SDS011;21464;48.112;11.530;2023-09-30T14:23:44;12.57;;;7.35;;
35364;SDS011;21464;48.112;11.530;2023-09-30T14:26:10;11.48;;;7.35;;
35364;SDS011;21464;48.112;11.530;2023-09-30T14:28:37;12.82;;;8.05;;
35364;SDS011;21464;48.112;11.530;2023-09-30T14:31:03;11.32;;;7.78;;
35364;SDS011;21464;48.112;11.530;2023-09-30T14:33:30;13.55;;;7.45;;
35364;SDS011;21464;48.112;11.530;2023-09-30T14:35:56;12.23;;;7.30;;
35364;SDS011;21464;48.112;11.530;2023-09-30T14:38:22;15.07;;;8.30;;
35364;SDS011;21464;48.112;11.530;2023-09-30T14:40:49;11.35;;;7.38;;
35364;SDS011;21464;48.112;11.530;2023-09-30T14:43:16;13.05;;;7.72;;
35364;SDS011;21464;48.112;11.530;2023-09-30T14:45:42;11.13;;;6.97;;
35364;SDS011;21464;48.112;11.530;2023-09-30T14:48:08;14.38;;;7.00;;
35364;SDS011;21464;48.112;11.530;2023-09-30T14:50:35;14.00;;;7.47;;